sensor_id;sensor_type;location;lat;lon;timestamp;pressure;altitude;pressure_sealevel;temperature;humidity
73518;BME280;61766;60.318;25.044;2022-08-21T00:00:16;101422.16;;;25.79;36.34
73518;BME280;61766;60.318;25.044;2022-08-21T00:02:44;101420.83;;;25.75;36.16
73518;BME280;61766;60.318;25.044;2022-08-21T00:05:05;101423.13;;;25.64;35.99
73518;BME280;61766;60.318;25.044;2022-08-21T00:07:30;101419.70;;;26.25;35.56
73518;BME280;61766;60.318;25.044;2022-08-21T00:09:55;101413.37;;;26.01;35.66
73518;BME280;61766;60.318;25.044;2022-08-21T00:12:21;101409.15;;;25.98;35.69
73518;BME280;61766;60.318;25.044;2022-08-21T00:14:47;101405.82;;;26.19;35.55
73518;BME280;61766;60.318;25.044;2022-08-21T00:17:13;101402.66;;;26.15;35.59
73518;BME280;61766;60.318;25.044;2022-08-21T00:19:39;101402.06;;;25.90;35.79
73518;BME280;61766;60.318;25.044;2022-08-21T00:22:04;101401.77;;;26.04;35.85
73518;BME280;61766;60.318;25.044;2022-08-21T00:24:30;101397.97;;;26.05;35.79
73518;BME280;61766;60.318;25.044;2022-08-21T00:26:56;101396.44;;;26.02;35.78
73518;BME280;61766;60.318;25.044;2022-08-21T00:29:21;101397.58;;;26.05;35.82
73518;BME280;61766;60.318;25.044;2022-08-21T00:31:46;101396.62;;;25.79;35.78
73518;BME280;61766;60.318;25.044;2022-08-21T00:34:13;101396.59;;;26.04;35.85
73518;BME280;61766;60.318;25.044;2022-08-21T00:36:38;101395.92;;;25.99;35.57
73518;BME280;61766;60.318;25.044;2022-08-21T00:39:04;101395.17;;;25.66;35.61
73518;BME280;61766;60.318;25.044;2022-08-21T00:41:29;101395.95;;;25.60;35.56
73518;BME280;61766;60.318;25.044;2022-08-21T00:43:55;101398.23;;;25.50;35.54
73518;BME280;61766;60.318;25.044;2022-08-21T00:46:21;101399.05;;;25.68;35.61
73518;BME280;61766;60.318;25.044;2022-08-21T00:48:46;101399.81;;;25.56;35.51
73518;BME280;61766;60.318;25.044;2022-08-21T00:51:13;101401.39;;;25.40;35.62
73518;BME280;61766;60.318;25.044;2022-08-21T00:53:39;101398.38;;;25.28;35.72
73518;BME280;61766;60.318;25.044;2022-08-21T00:56:05;101397.19;;;25.22;35.87
73518;BME280;61766;60.318;25.044;2022-08-21T00:58:30;101396.44;;;25.10;35.94
73518;BME280;61766;60.318;25.044;2022-08-21T01:00:54;101396.48;;;24.87;36.32
73518;BME280;61766;60.318;25.044;2022-08-21T01:03:23;101395.81;;;25.03;36.38
73518;BME280;61766;60.318;25.044;2022-08-21T01:05:46;101392.55;;;24.87;36.54
73518;BME280;61766;60.318;25.044;2022-08-21T01:10:37;101393.85;;;24.72;36.65
73518;BME280;61766;60.318;25.044;2022-08-21T01:13:02;101397.66;;;24.66;36.77
73518;BME280;61766;60.318;25.044;2022-08-21T01:15:30;101398.70;;;24.72;36.57
73518;BME280;61766;60.318;25.044;2022-08-21T01:17:53;101399.76;;;24.70;37.71
73518;BME280;61766;60.318;25.044;2022-08-21T01:20:19;101397.66;;;24.62;38.10
73518;BME280;61766;60.318;25.044;2022-08-21T01:22:44;101398.09;;;24.95;38.26
73518;BME280;61766;60.318;25.044;2022-08-21T01:25:12;101397.45;;;24.34;38.59
73518;BME280;61766;60.318;25.044;2022-08-21T01:27:36;101397.00;;;24.88;38.11
73518;BME280;61766;60.318;25.044;2022-08-21T01:30:08;101393.47;;;24.88;37.95
73518;BME280;61766;60.318;25.044;2022-08-21T01:32:27;101387.24;;;24.97;37.80
73518;BME280;61766;60.318;25.044;2022-08-21T01:34:53;101386.27;;;24.85;38.62
73518;BME280;61766;60.318;25.044;2022-08-21T01:37:21;101381.39;;;24.74;38.24
73518;BME280;61766;60.318;25.044;2022-08-21T01:39:45;101380.84;;;24.97;38.08
73518;BME280;61766;60.318;25.044;2022-08-21T01:42:10;101382.68;;;24.69;37.78
73518;BME280;61766;60.318;25.044;2022-08-21T01:44:35;101382.69;;;24.83;37.98
73518;BME280;61766;60.318;25.044;2022-08-21T01:47:05;101385.29;;;24.57;38.38
73518;BME280;61766;60.318;25.044;2022-08-21T01:49:26;101382.76;;;24.67;38.13
73518;BME280;61766;60.318;25.044;2022-08-21T01:51:52;101379.95;;;24.44;38.10
73518;BME280;61766;60.318;25.044;2022-08-21T01:54:18;101379.93;;;24.38;37.87
73518;BME280;61766;60.318;25.044;2022-08-21T01:56:46;101381.54;;;24.56;38.00
73518;BME280;61766;60.318;25.044;2022-08-21T01:59:09;101382.32;;;24.47;38.09
73518;BME280;61766;60.318;25.044;2022-08-21T02:01:34;101383.19;;;24.40;38.09
73518;BME280;61766;60.318;25.044;2022-08-21T02:04:00;101379.56;;;24.28;38.21
73518;BME280;61766;60.318;25.044;2022-08-21T02:06:26;101379.41;;;24.50;38.24
73518;BME280;61766;60.318;25.044;2022-08-21T02:08:51;101380.69;;;24.21;38.40
73518;BME280;61766;60.318;25.044;2022-08-21T02:11:17;101379.82;;;24.20;38.33
73518;BME280;61766;60.318;25.044;2022-08-21T02:13:43;101381.04;;;24.14;38.32
73518;BME280;61766;60.318;25.044;2022-08-21T02:16:09;101380.09;;;24.11;38.59
73518;BME280;61766;60.318;25.044;2022-08-21T02:18:34;101378.40;;;24.09;38.93
73518;BME280;61766;60.318;25.044;2022-08-21T02:20:59;101377.96;;;24.27;39.15
73518;BME280;61766;60.318;25.044;2022-08-21T02:25:51;101378.41;;;24.25;40.38
73518;BME280;61766;60.318;25.044;2022-08-21T02:28:16;101376.25;;;24.33;40.83
73518;BME280;61766;60.318;25.044;2022-08-21T02:30:45;101373.54;;;24.32;40.40
73518;BME280;61766;60.318;25.044;2022-08-21T02:33:09;101373.73;;;24.41;40.38
73518;BME280;61766;60.318;25.044;2022-08-21T02:35:33;101373.11;;;24.31;40.56
73518;BME280;61766;60.318;25.044;2022-08-21T02:38:02;101373.43;;;24.32;40.62
73518;BME280;61766;60.318;25.044;2022-08-21T02:40:26;101377.31;;;24.53;40.14
73518;BME280;61766;60.318;25.044;2022-08-21T02:42:50;101373.81;;;24.57;40.81
73518;BME280;61766;60.318;25.044;2022-08-21T02:45:15;101380.27;;;23.54;42.68
73518;BME280;61766;60.318;25.044;2022-08-21T02:50:07;101375.72;;;24.13;41.83
73518;BME280;61766;60.318;25.044;2022-08-21T02:52:32;101377.47;;;23.96;42.13
73518;BME280;61766;60.318;25.044;2022-08-21T02:55:03;101376.26;;;23.95;42.21
73518;BME280;61766;60.318;25.044;2022-08-21T02:57:23;101374.66;;;23.83;42.46
73518;BME280;61766;60.318;25.044;2022-08-21T02:59:49;101375.34;;;23.84;43.20
73518;BME280;61766;60.318;25.044;2022-08-21T03:02:14;101373.65;;;23.84;42.93
73518;BME280;61766;60.318;25.044;2022-08-21T03:04:40;101376.53;;;24.23;42.65
73518;BME280;61766;60.318;25.044;2022-08-21T03:07:05;101374.51;;;24.07;42.59
73518;BME280;61766;60.318;25.044;2022-08-21T03:09:31;101377.36;;;23.88;42.50
73518;BME280;61766;60.318;25.044;2022-08-21T03:11:57;101373.78;;;24.07;42.13
73518;BME280;61766;60.318;25.044;2022-08-21T03:14:23;101376.42;;;24.06;42.21
73518;BME280;61766;60.318;25.044;2022-08-21T03:16:48;101378.14;;;23.84;42.95
73518;BME280;61766;60.318;25.044;2022-08-21T03:19:14;101374.29;;;23.65;43.80
73518;BME280;61766;60.318;25.044;2022-08-21T03:21:40;101374.39;;;23.59;43.42
73518;BME280;61766;60.318;25.044;2022-08-21T03:24:05;101367.19;;;23.63;43.32
73518;BME280;61766;60.318;25.044;2022-08-21T03:26:31;101366.75;;;23.27;44.45
73518;BME280;61766;60.318;25.044;2022-08-21T03:28:56;101362.41;;;22.06;46.48
73518;BME280;61766;60.318;25.044;2022-08-21T03:31:22;101359.66;;;23.40;44.63
73518;BME280;61766;60.318;25.044;2022-08-21T03:33:47;101355.82;;;23.25;44.79
73518;BME280;61766;60.318;25.044;2022-08-21T03:36:13;101355.63;;;23.12;45.01
73518;BME280;61766;60.318;25.044;2022-08-21T03:38:38;101352.78;;;23.17;44.39
73518;BME280;61766;60.318;25.044;2022-08-21T03:41:04;101352.36;;;23.54;43.63
73518;BME280;61766;60.318;25.044;2022-08-21T03:43:29;101355.28;;;23.42;44.02
73518;BME280;61766;60.318;25.044;2022-08-21T03:45:54;101355.20;;;23.46;43.97
73518;BME280;61766;60.318;25.044;2022-08-21T03:48:20;101356.84;;;23.54;43.83
73518;BME280;61766;60.318;25.044;2022-08-21T03:50:45;101357.46;;;23.22;44.41
73518;BME280;61766;60.318;25.044;2022-08-21T03:53:13;101358.52;;;23.12;44.54
73518;BME280;61766;60.318;25.044;2022-08-21T03:55:37;101369.04;;;23.40;44.32
73518;BME280;61766;60.318;25.044;2022-08-21T03:58:03;101376.79;;;22.88;44.65
73518;BME280;61766;60.318;25.044;2022-08-21T04:00:28;101381.27;;;23.49;44.15
73518;BME280;61766;60.318;25.044;2022-08-21T04:02:53;101382.68;;;23.03;44.51
73518;BME280;61766;60.318;25.044;2022-08-21T04:05:19;101389.65;;;23.29;44.05
73518;BME280;61766;60.318;25.044;2022-08-21T04:07:44;101389.28;;;23.72;43.40
73518;BME280;61766;60.318;25.044;2022-08-21T04:10:10;101389.11;;;23.05;44.04
73518;BME280;61766;60.318;25.044;2022-08-21T04:12:35;101392.01;;;23.79;43.29
73518;BME280;61766;60.318;25.044;2022-08-21T04:15:01;101387.13;;;23.61;43.48
73518;BME280;61766;60.318;25.044;2022-08-21T04:17:26;101383.64;;;23.73;43.23
73518;BME280;61766;60.318;25.044;2022-08-21T04:19:52;101377.87;;;23.56;43.41
73518;BME280;61766;60.318;25.044;2022-08-21T04:22:18;101378.87;;;23.63;43.02
73518;BME280;61766;60.318;25.044;2022-08-21T04:24:43;101380.20;;;23.12;43.76
73518;BME280;61766;60.318;25.044;2022-08-21T04:27:09;101384.39;;;23.13;44.45
73518;BME280;61766;60.318;25.044;2022-08-21T04:29:34;101385.17;;;22.31;45.95
73518;BME280;61766;60.318;25.044;2022-08-21T04:32:00;101378.71;;;22.87;45.16
73518;BME280;61766;60.318;25.044;2022-08-21T04:34:26;101378.57;;;23.07;45.18
73518;BME280;61766;60.318;25.044;2022-08-21T04:36:51;101379.94;;;22.63;45.52
73518;BME280;61766;60.318;25.044;2022-08-21T04:39:17;101379.08;;;22.88;45.30
73518;BME280;61766;60.318;25.044;2022-08-21T04:41:43;101378.58;;;22.78;45.11
73518;BME280;61766;60.318;25.044;2022-08-21T04:44:08;101379.53;;;22.76;45.17
73518;BME280;61766;60.318;25.044;2022-08-21T04:46:33;101374.74;;;23.24;44.51
73518;BME280;61766;60.318;25.044;2022-08-21T04:48:58;101374.19;;;22.79;45.18
73518;BME280;61766;60.318;25.044;2022-08-21T04:51:27;101374.07;;;22.82;45.20
73518;BME280;61766;60.318;25.044;2022-08-21T04:53:52;101376.61;;;23.67;44.07
73518;BME280;61766;60.318;25.044;2022-08-21T04:56:19;101378.51;;;23.33;44.32
73518;BME280;61766;60.318;25.044;2022-08-21T04:58:41;101380.89;;;22.83;45.17
73518;BME280;61766;60.318;25.044;2022-08-21T05:01:11;101378.69;;;22.75;45.83
73518;BME280;61766;60.318;25.044;2022-08-21T05:03:33;101378.37;;;23.47;44.69
73518;BME280;61766;60.318;25.044;2022-08-21T05:05:57;101377.29;;;22.56;46.13
73518;BME280;61766;60.318;25.044;2022-08-21T05:08:23;101375.03;;;23.04;45.33
73518;BME280;61766;60.318;25.044;2022-08-21T05:10:48;101381.28;;;22.40;46.21
73518;BME280;61766;60.318;25.044;2022-08-21T05:13:14;101377.49;;;22.81;45.68
73518;BME280;61766;60.318;25.044;2022-08-21T05:15:39;101377.07;;;22.57;46.25
73518;BME280;61766;60.318;25.044;2022-08-21T05:18:04;101379.61;;;22.48;46.06
73518;BME280;61766;60.318;25.044;2022-08-21T05:20:30;101378.50;;;22.58;46.00
73518;BME280;61766;60.318;25.044;2022-08-21T05:22:55;101381.37;;;23.34;44.60
73518;BME280;61766;60.318;25.044;2022-08-21T05:25:21;101378.18;;;23.26;44.39
73518;BME280;61766;60.318;25.044;2022-08-21T05:27:46;101384.33;;;22.77;44.94
73518;BME280;61766;60.318;25.044;2022-08-21T05:30:12;101381.85;;;23.50;43.29
73518;BME280;61766;60.318;25.044;2022-08-21T05:32:38;101383.29;;;23.64;43.48
73518;BME280;61766;60.318;25.044;2022-08-21T05:35:05;101385.53;;;23.53;43.08
73518;BME280;61766;60.318;25.044;2022-08-21T05:37:29;101384.01;;;23.82;42.78
73518;BME280;61766;60.318;25.044;2022-08-21T05:39:54;101385.09;;;23.60;42.95
73518;BME280;61766;60.318;25.044;2022-08-21T05:42:20;101385.50;;;23.45;43.15
73518;BME280;61766;60.318;25.044;2022-08-21T05:44:46;101380.04;;;23.55;43.63
73518;BME280;61766;60.318;25.044;2022-08-21T05:47:11;101382.75;;;23.72;43.20
73518;BME280;61766;60.318;25.044;2022-08-21T05:49:37;101386.03;;;23.29;43.48
73518;BME280;61766;60.318;25.044;2022-08-21T05:52:03;101386.05;;;23.33;43.86
73518;BME280;61766;60.318;25.044;2022-08-21T05:54:28;101389.25;;;23.64;42.88
73518;BME280;61766;60.318;25.044;2022-08-21T05:56:54;101389.79;;;23.37;43.57
73518;BME280;61766;60.318;25.044;2022-08-21T05:59:19;101388.83;;;23.58;43.44
73518;BME280;61766;60.318;25.044;2022-08-21T06:01:45;101390.02;;;23.54;43.26
73518;BME280;61766;60.318;25.044;2022-08-21T06:04:10;101389.36;;;23.85;42.56
73518;BME280;61766;60.318;25.044;2022-08-21T06:06:35;101387.00;;;22.70;44.30
73518;BME280;61766;60.318;25.044;2022-08-21T06:09:01;101387.56;;;22.86;44.81
73518;BME280;61766;60.318;25.044;2022-08-21T06:11:26;101387.88;;;22.76;44.63
73518;BME280;61766;60.318;25.044;2022-08-21T06:13:52;101387.59;;;23.50;43.71
73518;BME280;61766;60.318;25.044;2022-08-21T06:16:17;101389.55;;;24.05;42.60
73518;BME280;61766;60.318;25.044;2022-08-21T06:18:44;101392.82;;;24.37;41.62
73518;BME280;61766;60.318;25.044;2022-08-21T06:21:09;101391.75;;;23.86;42.58
73518;BME280;61766;60.318;25.044;2022-08-21T06:23:34;101385.34;;;24.01;42.30
73518;BME280;61766;60.318;25.044;2022-08-21T06:26:00;101379.56;;;23.35;43.12
73518;BME280;61766;60.318;25.044;2022-08-21T06:28:25;101381.82;;;23.84;42.42
73518;BME280;61766;60.318;25.044;2022-08-21T06:30:50;101379.85;;;24.25;42.05
73518;BME280;61766;60.318;25.044;2022-08-21T06:33:16;101376.11;;;24.04;41.38
73518;BME280;61766;60.318;25.044;2022-08-21T06:35:41;101374.68;;;24.62;40.80
73518;BME280;61766;60.318;25.044;2022-08-21T06:38:07;101373.24;;;24.32;41.51
73518;BME280;61766;60.318;25.044;2022-08-21T06:40:33;101381.88;;;23.94;42.55
73518;BME280;61766;60.318;25.044;2022-08-21T06:43:04;101372.12;;;24.43;41.84
73518;BME280;61766;60.318;25.044;2022-08-21T06:45:24;101371.35;;;23.95;41.86
73518;BME280;61766;60.318;25.044;2022-08-21T06:47:49;101372.37;;;24.43;41.92
73518;BME280;61766;60.318;25.044;2022-08-21T06:50:15;101367.13;;;24.00;42.57
73518;BME280;61766;60.318;25.044;2022-08-21T06:52:41;101373.49;;;24.08;41.91
73518;BME280;61766;60.318;25.044;2022-08-21T06:55:07;101368.70;;;23.58;43.09
73518;BME280;61766;60.318;25.044;2022-08-21T06:57:31;101367.35;;;24.12;42.34
73518;BME280;61766;60.318;25.044;2022-08-21T06:59:57;101368.67;;;24.24;41.86
73518;BME280;61766;60.318;25.044;2022-08-21T07:02:23;101367.11;;;24.89;40.95
73518;BME280;61766;60.318;25.044;2022-08-21T07:04:48;101366.89;;;24.77;40.83
73518;BME280;61766;60.318;25.044;2022-08-21T07:07:13;101364.85;;;24.49;40.96
73518;BME280;61766;60.318;25.044;2022-08-21T07:09:39;101359.83;;;25.14;40.22
73518;BME280;61766;60.318;25.044;2022-08-21T07:12:05;101361.35;;;24.62;40.74
73518;BME280;61766;60.318;25.044;2022-08-21T07:14:30;101359.21;;;24.95;39.90
73518;BME280;61766;60.318;25.044;2022-08-21T07:16:56;101366.37;;;25.58;39.20
73518;BME280;61766;60.318;25.044;2022-08-21T07:19:21;101360.00;;;25.84;38.98
73518;BME280;61766;60.318;25.044;2022-08-21T07:21:47;101356.80;;;25.69;38.82
73518;BME280;61766;60.318;25.044;2022-08-21T07:24:12;101356.50;;;25.90;38.30
73518;BME280;61766;60.318;25.044;2022-08-21T07:26:37;101357.12;;;26.22;37.59
73518;BME280;61766;60.318;25.044;2022-08-21T07:29:03;101358.24;;;26.54;36.76
73518;BME280;61766;60.318;25.044;2022-08-21T07:31:28;101358.49;;;26.39;36.72
73518;BME280;61766;60.318;25.044;2022-08-21T07:33:54;101359.49;;;25.81;37.35
73518;BME280;61766;60.318;25.044;2022-08-21T07:36:19;101359.94;;;25.60;37.53
73518;BME280;61766;60.318;25.044;2022-08-21T07:38:45;101360.97;;;26.48;36.25
73518;BME280;61766;60.318;25.044;2022-08-21T07:41:14;101361.58;;;26.48;35.79
73518;BME280;61766;60.318;25.044;2022-08-21T07:43:37;101363.12;;;26.10;36.67
73518;BME280;61766;60.318;25.044;2022-08-21T07:46:02;101360.07;;;26.71;35.76
73518;BME280;61766;60.318;25.044;2022-08-21T07:48:27;101356.43;;;26.89;35.15
73518;BME280;61766;60.318;25.044;2022-08-21T07:50:53;101357.53;;;26.69;35.58
73518;BME280;61766;60.318;25.044;2022-08-21T07:53:19;101354.09;;;26.83;35.47
73518;BME280;61766;60.318;25.044;2022-08-21T07:55:44;101348.07;;;27.16;35.03
73518;BME280;61766;60.318;25.044;2022-08-21T07:58:10;101344.90;;;26.98;35.08
73518;BME280;61766;60.318;25.044;2022-08-21T08:00:36;101343.77;;;27.56;34.57
73518;BME280;61766;60.318;25.044;2022-08-21T08:03:02;101346.00;;;27.31;34.67
73518;BME280;61766;60.318;25.044;2022-08-21T08:05:29;101340.39;;;27.57;34.37
73518;BME280;61766;60.318;25.044;2022-08-21T08:07:52;101338.81;;;27.18;34.15
73518;BME280;61766;60.318;25.044;2022-08-21T08:10:18;101334.65;;;27.43;33.91
73518;BME280;61766;60.318;25.044;2022-08-21T08:12:43;101339.89;;;27.59;34.09
73518;BME280;61766;60.318;25.044;2022-08-21T08:15:12;101338.04;;;28.18;32.98
73518;BME280;61766;60.318;25.044;2022-08-21T08:17:35;101333.59;;;27.30;33.58
73518;BME280;61766;60.318;25.044;2022-08-21T08:20:00;101333.32;;;27.75;32.73
73518;BME280;61766;60.318;25.044;2022-08-21T08:22:25;101331.24;;;28.26;32.32
73518;BME280;61766;60.318;25.044;2022-08-21T08:24:51;101322.96;;;28.31;32.79
73518;BME280;61766;60.318;25.044;2022-08-21T08:27:17;101321.96;;;28.99;31.96
73518;BME280;61766;60.318;25.044;2022-08-21T08:29:43;101327.23;;;29.14;31.19
73518;BME280;61766;60.318;25.044;2022-08-21T08:32:08;101327.61;;;27.93;33.03
73518;BME280;61766;60.318;25.044;2022-08-21T08:34:33;101321.95;;;28.71;32.61
73518;BME280;61766;60.318;25.044;2022-08-21T08:36:59;101318.67;;;29.48;31.19
73518;BME280;61766;60.318;25.044;2022-08-21T08:39:24;101324.33;;;28.61;31.97
73518;BME280;61766;60.318;25.044;2022-08-21T08:41:49;101322.44;;;29.39;31.20
73518;BME280;61766;60.318;25.044;2022-08-21T08:44:14;101323.39;;;29.25;31.75
73518;BME280;61766;60.318;25.044;2022-08-21T08:46:43;101319.75;;;29.07;31.89
73518;BME280;61766;60.318;25.044;2022-08-21T08:49:09;101317.54;;;29.07;31.58
73518;BME280;61766;60.318;25.044;2022-08-21T08:51:37;101316.36;;;28.95;31.89
73518;BME280;61766;60.318;25.044;2022-08-21T08:53:59;101312.08;;;29.51;31.47
73518;BME280;61766;60.318;25.044;2022-08-21T08:56:27;101319.20;;;29.22;31.29
73518;BME280;61766;60.318;25.044;2022-08-21T08:58:48;101310.08;;;29.24;31.87
73518;BME280;61766;60.318;25.044;2022-08-21T09:01:16;101311.34;;;29.30;31.31
73518;BME280;61766;60.318;25.044;2022-08-21T09:03:39;101315.06;;;30.09;30.97
73518;BME280;61766;60.318;25.044;2022-08-21T09:06:10;101311.47;;;29.49;31.24
73518;BME280;61766;60.318;25.044;2022-08-21T09:08:41;101311.91;;;29.11;31.18
73518;BME280;61766;60.318;25.044;2022-08-21T09:11:01;101312.59;;;28.55;32.13
73518;BME280;61766;60.318;25.044;2022-08-21T09:13:24;101310.24;;;29.13;31.21
73518;BME280;61766;60.318;25.044;2022-08-21T09:15:52;101310.27;;;29.01;31.57
73518;BME280;61766;60.318;25.044;2022-08-21T09:18:21;101310.24;;;27.99;32.79
73518;BME280;61766;60.318;25.044;2022-08-21T09:20:39;101306.58;;;29.14;31.38
73518;BME280;61766;60.318;25.044;2022-08-21T09:23:09;101299.14;;;29.35;31.26
73518;BME280;61766;60.318;25.044;2022-08-21T09:25:30;101304.15;;;28.85;32.06
73518;BME280;61766;60.318;25.044;2022-08-21T09:27:52;101302.62;;;29.25;31.59
73518;BME280;61766;60.318;25.044;2022-08-21T09:30:18;101305.57;;;29.89;30.98
73518;BME280;61766;60.318;25.044;2022-08-21T09:32:42;101306.43;;;29.81;30.31
73518;BME280;61766;60.318;25.044;2022-08-21T09:35:11;101300.24;;;28.41;30.87
73518;BME280;61766;60.318;25.044;2022-08-21T09:37:44;101298.58;;;28.90;31.26
73518;BME280;61766;60.318;25.044;2022-08-21T09:39:59;101297.36;;;28.90;31.48
73518;BME280;61766;60.318;25.044;2022-08-21T09:42:28;101292.43;;;28.98;32.04
73518;BME280;61766;60.318;25.044;2022-08-21T09:45:06;101290.43;;;28.82;31.60
73518;BME280;61766;60.318;25.044;2022-08-21T09:47:18;101295.18;;;28.69;31.49
73518;BME280;61766;60.318;25.044;2022-08-21T09:49:42;101291.06;;;28.09;33.08
73518;BME280;61766;60.318;25.044;2022-08-21T09:52:16;101289.90;;;27.86;33.31
73518;BME280;61766;60.318;25.044;2022-08-21T09:54:33;101287.71;;;27.12;34.76
73518;BME280;61766;60.318;25.044;2022-08-21T09:56:58;101281.71;;;28.73;32.74
73518;BME280;61766;60.318;25.044;2022-08-21T09:59:26;101278.40;;;29.55;31.67
73518;BME280;61766;60.318;25.044;2022-08-21T10:01:49;101281.05;;;29.14;31.85
73518;BME280;61766;60.318;25.044;2022-08-21T10:04:12;101281.24;;;28.94;31.93
73518;BME280;61766;60.318;25.044;2022-08-21T10:06:38;101280.76;;;28.05;33.20
73518;BME280;61766;60.318;25.044;2022-08-21T10:09:05;101277.45;;;28.69;32.90
73518;BME280;61766;60.318;25.044;2022-08-21T10:11:29;101278.71;;;28.24;32.41
73518;BME280;61766;60.318;25.044;2022-08-21T10:14:01;101274.41;;;28.14;33.16
73518;BME280;61766;60.318;25.044;2022-08-21T10:16:32;101269.60;;;28.23;33.11
73518;BME280;61766;60.318;25.044;2022-08-21T10:18:54;101268.99;;;27.82;33.75
73518;BME280;61766;60.318;25.044;2022-08-21T10:21:19;101265.93;;;29.03;32.06
73518;BME280;61766;60.318;25.044;2022-08-21T10:23:47;101270.56;;;28.98;31.87
73518;BME280;61766;60.318;25.044;2022-08-21T10:26:07;101268.36;;;28.36;32.29
73518;BME280;61766;60.318;25.044;2022-08-21T10:28:32;101268.58;;;28.37;32.64
73518;BME280;61766;60.318;25.044;2022-08-21T10:30:59;101267.26;;;29.00;32.19
73518;BME280;61766;60.318;25.044;2022-08-21T10:33:27;101270.75;;;28.11;32.41
73518;BME280;61766;60.318;25.044;2022-08-21T10:35:51;101279.69;;;27.96;33.02
73518;BME280;61766;60.318;25.044;2022-08-21T10:40:38;101271.57;;;27.40;34.86
73518;BME280;61766;60.318;25.044;2022-08-21T10:43:08;101275.68;;;26.29;36.57
73518;BME280;61766;60.318;25.044;2022-08-21T10:45:35;101272.31;;;27.23;35.46
73518;BME280;61766;60.318;25.044;2022-08-21T10:47:54;101272.40;;;26.91;36.31
73518;BME280;61766;60.318;25.044;2022-08-21T10:50:24;101268.15;;;25.95;37.26
73518;BME280;61766;60.318;25.044;2022-08-21T10:52:56;101266.97;;;26.56;37.44
73518;BME280;61766;60.318;25.044;2022-08-21T10:55:08;101272.34;;;26.45;36.96
73518;BME280;61766;60.318;25.044;2022-08-21T10:57:39;101268.35;;;27.12;36.38
73518;BME280;61766;60.318;25.044;2022-08-21T11:00:00;101270.86;;;26.76;36.66
73518;BME280;61766;60.318;25.044;2022-08-21T11:02:27;101269.47;;;27.03;36.53
73518;BME280;61766;60.318;25.044;2022-08-21T11:04:54;101267.83;;;27.16;36.02
73518;BME280;61766;60.318;25.044;2022-08-21T11:07:18;101270.93;;;26.63;36.47
73518;BME280;61766;60.318;25.044;2022-08-21T11:09:41;101270.44;;;26.89;36.47
73518;BME280;61766;60.318;25.044;2022-08-21T11:12:22;101264.77;;;27.15;35.99
73518;BME280;61766;60.318;25.044;2022-08-21T11:14:38;101261.55;;;27.72;35.91
73518;BME280;61766;60.318;25.044;2022-08-21T11:17:01;101257.19;;;28.20;34.47
73518;BME280;61766;60.318;25.044;2022-08-21T11:19:24;101260.89;;;27.85;34.53
73518;BME280;61766;60.318;25.044;2022-08-21T11:21:49;101258.00;;;27.20;35.36
73518;BME280;61766;60.318;25.044;2022-08-21T11:24:22;101266.68;;;27.70;35.08
73518;BME280;61766;60.318;25.044;2022-08-21T11:26:41;101259.53;;;27.41;35.70
73518;BME280;61766;60.318;25.044;2022-08-21T11:29:08;101264.99;;;27.01;35.62
73518;BME280;61766;60.318;25.044;2022-08-21T11:31:37;101267.23;;;27.83;35.55
73518;BME280;61766;60.318;25.044;2022-08-21T11:34:03;101261.42;;;27.84;35.41
73518;BME280;61766;60.318;25.044;2022-08-21T11:36:24;101256.65;;;27.77;34.57
73518;BME280;61766;60.318;25.044;2022-08-21T11:38:49;101256.52;;;28.40;34.37
73518;BME280;61766;60.318;25.044;2022-08-21T11:41:22;101246.96;;;28.70;33.83
73518;BME280;61766;60.318;25.044;2022-08-21T11:43:38;101254.76;;;28.17;33.62
73518;BME280;61766;60.318;25.044;2022-08-21T11:46:11;101245.29;;;28.41;33.94
73518;BME280;61766;60.318;25.044;2022-08-21T11:48:36;101244.87;;;28.75;33.00
73518;BME280;61766;60.318;25.044;2022-08-21T11:50:52;101244.87;;;28.12;33.78
73518;BME280;61766;60.318;25.044;2022-08-21T11:53:19;101246.20;;;28.30;33.44
73518;BME280;61766;60.318;25.044;2022-08-21T11:55:46;101250.39;;;28.46;33.20
73518;BME280;61766;60.318;25.044;2022-08-21T11:58:11;101255.61;;;28.13;33.30
73518;BME280;61766;60.318;25.044;2022-08-21T12:00:35;101250.52;;;27.15;34.71
73518;BME280;61766;60.318;25.044;2022-08-21T12:05:28;101261.19;;;27.71;34.36
73518;BME280;61766;60.318;25.044;2022-08-21T12:08:01;101256.85;;;27.22;35.21
73518;BME280;61766;60.318;25.044;2022-08-21T12:10:16;101256.90;;;27.45;35.02
73518;BME280;61766;60.318;25.044;2022-08-21T12:12:42;101252.59;;;27.21;35.44
73518;BME280;61766;60.318;25.044;2022-08-21T12:15:14;101252.85;;;26.55;36.26
73518;BME280;61766;60.318;25.044;2022-08-21T12:17:37;101256.61;;;25.95;37.53
73518;BME280;61766;60.318;25.044;2022-08-21T12:19:58;101245.93;;;26.77;36.76
73518;BME280;61766;60.318;25.044;2022-08-21T12:22:21;101249.69;;;26.83;36.68
73518;BME280;61766;60.318;25.044;2022-08-21T12:24:49;101255.72;;;26.42;37.42
73518;BME280;61766;60.318;25.044;2022-08-21T12:27:19;101249.11;;;26.57;37.11
73518;BME280;61766;60.318;25.044;2022-08-21T12:29:39;101259.44;;;26.38;37.10
73518;BME280;61766;60.318;25.044;2022-08-21T12:32:22;101254.73;;;26.38;37.06
73518;BME280;61766;60.318;25.044;2022-08-21T12:34:34;101251.17;;;26.83;37.07
73518;BME280;61766;60.318;25.044;2022-08-21T12:36:58;101254.91;;;26.15;37.65
73518;BME280;61766;60.318;25.044;2022-08-21T12:39:24;101258.80;;;26.52;37.30
73518;BME280;61766;60.318;25.044;2022-08-21T12:41:49;101250.16;;;26.86;36.89